KPWM/PWM METAR and TAF weather

Enter ICAO airport designator
Station Type Date Time Source
KPWM METAR 2019/05/21 19:51 UTC NOAA

KPWM 211951Z 29023G29KT 10SM BKN070 16/03 A2974 RMK AO2 PK WND 30032/1853 SLP071 T01610028


Station Type Date Time Source
KPWM Decoded METAR 2019/05/21 19:51 UTC NOAA

PORTLAND INTERNATIONAL JETPORT, ME, United States (KPWM) 43-39N 70-18W 15M
May 21, 2019 - 03:51 PM EDT / 2019.05.21 1951 UTC
Wind: from the WNW (290 degrees) at 26 MPH (23 KT) gusting to 33 MPH (29 KT):0
Visibility: 10 mile(s):0
Sky conditions: mostly cloudy
Temperature: 61.0 F (16.1 C)
Dew Point: 37.0 F (2.8 C)
Relative Humidity: 40%
Pressure (altimeter): 29.74 in. Hg (1007 hPa)
ob: KPWM 211951Z 29023G29KT 10SM BKN070 16/03 A2974 RMK AO2 PK WND 30032/1853 SLP071 T01610028
cycle: 20

Station Type Date Time Source
KPWM TAF 2019/05/21 18:22 UTC NOAA

TAF KPWM 211720Z 2118/2218 31019G30KT P6SM SCT050
FM220100 30012KT P6SM SKC
FM221200 33014G23KT P6SM SKC

Example: see airport list